createdAt,value
2018-09-05T00:01:33.315Z,61.50
2018-09-05T00:04:00.740Z,61.50
2018-09-05T00:06:28.206Z,61.50
2018-09-05T00:08:55.946Z,61.50
2018-09-05T00:11:23.379Z,61.50
2018-09-05T00:13:50.959Z,61.50
2018-09-05T00:16:19.000Z,61.00
2018-09-05T00:18:46.412Z,61.60
2018-09-05T00:21:13.858Z,61.50
2018-09-05T00:23:41.302Z,61.50
2018-09-05T00:26:08.761Z,61.50
2018-09-05T00:28:36.184Z,61.60
2018-09-05T00:31:03.631Z,61.60
2018-09-05T00:33:31.076Z,61.70
2018-09-05T00:35:58.503Z,61.70
2018-09-05T00:38:25.919Z,61.70
2018-09-05T00:40:53.318Z,61.80
2018-09-05T00:43:20.747Z,61.80
2018-09-05T00:45:48.234Z,61.70
2018-09-05T00:48:15.664Z,61.60
2018-09-05T00:50:43.056Z,61.60
2018-09-05T00:53:10.416Z,61.50
2018-09-05T00:55:37.827Z,61.40
2018-09-05T00:58:05.264Z,61.30
2018-09-05T01:00:32.722Z,61.20
2018-09-05T01:03:00.156Z,61.30
2018-09-05T01:05:27.592Z,61.30
2018-09-05T01:07:54.974Z,61.20
2018-09-05T01:10:22.420Z,61.10
2018-09-05T01:12:49.872Z,60.90
2018-09-05T01:15:17.275Z,60.90
2018-09-05T01:17:44.660Z,60.90
2018-09-05T01:20:12.119Z,60.90
2018-09-05T01:22:39.512Z,61.00
2018-09-05T01:25:06.910Z,61.00
2018-09-05T01:27:34.322Z,61.00
2018-09-05T01:30:01.778Z,61.90
2018-09-05T01:32:29.178Z,61.10
2018-09-05T01:34:56.622Z,61.10
2018-09-05T01:37:24.106Z,61.20
2018-09-05T01:39:52.112Z,61.30
2018-09-05T01:42:19.512Z,61.30
2018-09-05T01:44:46.936Z,61.30
2018-09-05T01:47:14.376Z,61.30
2018-09-05T01:49:41.782Z,61.30
2018-09-05T01:52:09.320Z,61.30
2018-09-05T01:54:36.737Z,61.50
2018-09-05T01:57:04.171Z,61.50
2018-09-05T01:59:31.560Z,61.50
2018-09-05T02:01:59.005Z,61.60
2018-09-05T02:04:26.460Z,61.60
2018-09-05T02:06:54.032Z,61.60
2018-09-05T02:09:21.422Z,61.60
2018-09-05T02:11:48.817Z,61.60
2018-09-05T02:14:16.199Z,61.60
2018-09-05T02:16:43.608Z,61.60
2018-09-05T02:19:11.011Z,61.80
2018-09-05T02:21:38.462Z,61.50
2018-09-05T02:24:05.869Z,61.60
2018-09-05T02:26:33.301Z,62.50
2018-09-05T02:29:00.733Z,61.60
2018-09-05T02:31:28.470Z,61.60
2018-09-05T02:33:55.881Z,61.70
2018-09-05T02:36:23.256Z,61.60
2018-09-05T02:38:50.700Z,61.60
2018-09-05T02:41:18.153Z,61.60
2018-09-05T02:43:51.175Z,61.60
2018-09-05T02:46:18.614Z,61.60
2018-09-05T02:48:46.121Z,61.60
2018-09-05T02:51:13.589Z,61.60
2018-09-05T02:53:40.959Z,61.60
2018-09-05T02:56:08.400Z,61.60
2018-09-05T02:58:35.814Z,61.60
2018-09-05T03:01:03.259Z,61.60
2018-09-05T03:03:30.662Z,61.60
2018-09-05T03:05:58.370Z,61.50
2018-09-05T03:08:25.785Z,61.50
2018-09-05T03:10:53.242Z,61.50
2018-09-05T03:13:21.055Z,61.40
2018-09-05T03:15:48.713Z,61.40
2018-09-05T03:18:16.167Z,61.50
2018-09-05T03:20:43.826Z,61.30
2018-09-05T03:23:11.226Z,61.40
2018-09-05T03:25:38.978Z,61.30
2018-09-05T03:28:06.794Z,61.40
2018-09-05T03:30:34.210Z,61.40
2018-09-05T03:33:01.732Z,61.30
2018-09-05T03:35:29.119Z,61.30
2018-09-05T03:37:56.539Z,61.30
2018-09-05T03:40:23.957Z,61.20
2018-09-05T03:42:51.369Z,61.30
2018-09-05T03:45:18.784Z,61.40
2018-09-05T03:47:46.203Z,61.40
2018-09-05T03:50:13.575Z,61.40
2018-09-05T03:52:41.283Z,61.40
2018-09-05T03:55:08.726Z,61.40
2018-09-05T03:58:08.004Z,60.90
2018-09-05T04:00:36.093Z,61.70
2018-09-05T04:03:04.358Z,61.70
2018-09-05T04:05:31.822Z,61.60
2018-09-05T04:07:59.258Z,61.50
2018-09-05T04:10:26.662Z,61.50
2018-09-05T04:12:54.057Z,61.50
2018-09-05T04:15:21.542Z,61.50
2018-09-05T04:17:48.918Z,61.50
2018-09-05T04:20:16.358Z,61.50
2018-09-05T04:22:43.766Z,61.50
2018-09-05T04:25:11.166Z,61.50
2018-09-05T04:27:38.582Z,61.40
2018-09-05T04:30:06.254Z,61.40
2018-09-05T04:32:33.956Z,61.50
2018-09-05T04:35:01.426Z,61.50
2018-09-05T04:37:28.860Z,61.50
2018-09-05T04:39:56.274Z,61.50
2018-09-05T04:42:23.769Z,61.50
2018-09-05T04:44:51.193Z,61.60
2018-09-05T04:47:18.608Z,61.50
2018-09-05T04:49:46.021Z,61.50
2018-09-05T04:52:13.448Z,61.60
2018-09-05T04:54:40.907Z,61.70
2018-09-05T04:57:08.337Z,61.70
2018-09-05T04:59:35.837Z,61.70
2018-09-05T05:02:03.288Z,62.40
2018-09-05T05:04:30.703Z,61.70
2018-09-05T05:06:58.204Z,61.70
2018-09-05T05:09:25.639Z,61.80
2018-09-05T05:11:53.060Z,61.80
2018-09-05T05:14:20.466Z,61.80
2018-09-05T05:16:47.933Z,61.70
2018-09-05T05:19:15.347Z,61.70
2018-09-05T05:21:42.763Z,61.80
2018-09-05T05:24:10.152Z,61.80
2018-09-05T05:26:37.586Z,61.80
2018-09-05T05:29:05.030Z,62.00
2018-09-05T05:31:32.565Z,61.80
2018-09-05T05:33:59.973Z,61.80
2018-09-05T05:36:27.433Z,61.80
2018-09-05T05:38:54.858Z,61.80
2018-09-05T05:41:22.264Z,61.80
2018-09-05T05:43:49.756Z,61.80
2018-09-05T05:46:17.267Z,61.80
2018-09-05T05:48:44.672Z,61.90
2018-09-05T05:51:12.143Z,61.80
2018-09-05T05:53:39.543Z,61.90
2018-09-05T05:56:07.006Z,61.90
2018-09-05T05:58:34.603Z,61.80
2018-09-05T06:01:02.244Z,61.90
2018-09-05T06:03:29.603Z,61.90
2018-09-05T06:05:57.084Z,61.80
2018-09-05T06:08:24.523Z,61.80
2018-09-05T06:10:51.971Z,61.80
2018-09-05T06:13:19.505Z,62.00
2018-09-05T06:15:46.963Z,62.00
2018-09-05T06:18:14.405Z,62.00
2018-09-05T06:20:41.835Z,62.10
2018-09-05T06:23:09.279Z,62.10
2018-09-05T06:25:36.718Z,62.10
2018-09-05T06:28:04.227Z,62.20
2018-09-05T06:30:31.785Z,62.20
2018-09-05T06:32:59.079Z,62.20
2018-09-05T06:35:26.525Z,62.40
2018-09-05T06:37:53.993Z,62.40
2018-09-05T06:40:21.394Z,61.40
2018-09-05T06:42:48.799Z,62.40
2018-09-05T06:45:16.270Z,62.30
2018-09-05T06:47:43.675Z,62.40
2018-09-05T06:50:11.093Z,62.20
2018-09-05T06:52:38.527Z,62.30
2018-09-05T06:55:05.961Z,62.30
2018-09-05T06:57:33.416Z,62.30
2018-09-05T07:00:00.897Z,62.30
2018-09-05T07:02:28.686Z,62.20
2018-09-05T07:04:56.397Z,62.30
2018-09-05T07:07:23.839Z,63.50
2018-09-05T07:09:51.284Z,62.60
2018-09-05T07:12:18.701Z,62.70
2018-09-05T07:14:46.204Z,62.70
2018-09-05T07:17:13.650Z,62.50
2018-09-05T07:19:41.089Z,62.30
2018-09-05T07:22:08.555Z,62.30
2018-09-05T07:24:35.934Z,62.30
2018-09-05T07:27:03.400Z,62.30
2018-09-05T07:29:30.814Z,62.60
2018-09-05T07:31:58.179Z,62.20
2018-09-05T07:34:25.668Z,61.90
2018-09-05T07:36:53.086Z,61.90
2018-09-05T07:39:20.516Z,61.80
2018-09-05T07:41:47.961Z,61.80
2018-09-05T07:44:15.383Z,61.50
2018-09-05T07:46:42.852Z,61.40
2018-09-05T07:49:10.591Z,61.30
2018-09-05T07:51:38.148Z,61.20
2018-09-05T07:54:05.694Z,61.00
2018-09-05T07:56:33.189Z,60.60
2018-09-05T07:59:00.695Z,60.30
2018-09-05T08:01:28.351Z,60.20
2018-09-05T08:03:55.871Z,59.90
2018-09-05T08:06:23.294Z,59.80
2018-09-05T08:08:50.709Z,59.90
2018-09-05T08:11:18.129Z,59.80
2018-09-05T08:13:45.549Z,60.10
2018-09-05T08:16:13.001Z,59.10
2018-09-05T08:18:40.485Z,58.80
2018-09-05T08:21:07.866Z,58.90
2018-09-05T08:23:35.299Z,58.80
2018-09-05T08:26:02.721Z,58.00
2018-09-05T08:28:30.149Z,57.40
2018-09-05T08:30:57.600Z,57.50
2018-09-05T08:33:25.000Z,57.20
2018-09-05T08:35:52.812Z,57.10
2018-09-05T08:38:19.935Z,56.50
2018-09-05T08:40:47.279Z,56.50
2018-09-05T08:43:14.755Z,56.30
2018-09-05T08:45:42.531Z,56.30
2018-09-05T08:48:09.745Z,56.10
2018-09-05T08:50:37.027Z,55.70
2018-09-05T08:53:04.485Z,55.80
2018-09-05T08:55:31.865Z,55.10
2018-09-05T08:57:59.365Z,55.00
2018-09-05T09:00:26.797Z,55.70
2018-09-05T09:02:54.281Z,54.60
2018-09-05T09:05:21.635Z,54.50
2018-09-05T09:07:49.086Z,54.00
2018-09-05T09:10:16.535Z,53.70
2018-09-05T09:12:44.037Z,53.10
2018-09-05T09:15:11.492Z,53.40
2018-09-05T09:17:38.873Z,53.20
2018-09-05T09:20:06.344Z,52.40
2018-09-05T09:22:33.781Z,52.00
2018-09-05T09:25:01.241Z,52.10
2018-09-05T09:27:29.451Z,51.50
2018-09-05T09:29:56.854Z,50.70
2018-09-05T09:32:24.331Z,50.30
2018-09-05T09:34:51.730Z,50.80
2018-09-05T09:37:19.200Z,50.50
2018-09-05T09:39:46.650Z,50.20
2018-09-05T09:42:14.069Z,48.90
2018-09-05T09:44:41.492Z,49.30
2018-09-05T09:47:08.913Z,49.20
2018-09-05T09:49:36.395Z,49.00
2018-09-05T09:52:09.656Z,48.60
2018-09-05T09:54:37.301Z,48.40
2018-09-05T09:57:04.806Z,47.80
2018-09-05T09:59:32.217Z,46.90
2018-09-05T10:02:05.407Z,46.30
2018-09-05T10:04:38.430Z,45.50
2018-09-05T10:07:11.758Z,44.50
2018-09-05T10:09:45.037Z,44.10
2018-09-05T10:12:18.193Z,43.60
2018-09-05T10:14:50.199Z,42.90
2018-09-05T10:17:23.290Z,42.40
2018-09-05T10:19:55.065Z,40.80
2018-09-05T10:22:22.569Z,40.70
2018-09-05T10:24:49.977Z,40.40
2018-09-05T10:27:17.395Z,38.10
2018-09-05T10:29:44.881Z,38.10
2018-09-05T10:32:12.304Z,36.70
2018-09-05T10:34:39.734Z,35.90
2018-09-05T10:37:07.159Z,36.00
2018-09-05T10:39:34.566Z,35.70
2018-09-05T10:42:01.995Z,35.50
2018-09-05T10:44:29.412Z,35.70
2018-09-05T10:46:56.852Z,36.00
2018-09-05T10:49:24.260Z,35.60
2018-09-05T10:51:55.838Z,35.90
2018-09-05T10:54:24.096Z,35.80
2018-09-05T10:56:51.538Z,35.30
2018-09-05T10:59:18.999Z,35.10
2018-09-05T11:01:46.472Z,34.30
2018-09-05T11:04:13.896Z,33.70
2018-09-05T11:06:41.330Z,33.30
2018-09-05T11:09:10.168Z,33.50
2018-09-05T11:11:37.964Z,33.10
2018-09-05T11:14:05.968Z,32.80
2018-09-05T11:16:33.436Z,32.80
2018-09-05T11:19:00.814Z,32.70
2018-09-05T11:21:28.320Z,32.80
2018-09-05T11:23:55.787Z,32.60
2018-09-05T11:26:23.224Z,32.60
2018-09-05T11:28:50.689Z,32.60
2018-09-05T11:31:18.086Z,33.00
2018-09-05T11:33:45.513Z,32.80
2018-09-05T11:36:12.912Z,33.20
2018-09-05T11:38:40.314Z,32.40
2018-09-05T11:41:08.072Z,32.70
2018-09-05T11:43:35.561Z,32.70
2018-09-05T11:46:03.115Z,33.50
2018-09-05T11:48:30.513Z,33.60
2018-09-05T11:50:58.229Z,33.50
2018-09-05T11:53:25.675Z,33.20
2018-09-05T11:55:53.074Z,33.60
2018-09-05T11:58:20.701Z,33.80
2018-09-05T12:00:48.094Z,33.30
2018-09-05T12:03:15.512Z,33.60
2018-09-05T12:05:42.977Z,34.00
2018-09-05T12:08:10.374Z,33.90
2018-09-05T12:10:37.863Z,33.70
2018-09-05T12:13:05.260Z,33.60
2018-09-05T12:15:32.727Z,34.30
2018-09-05T12:18:00.134Z,34.20
2018-09-05T12:20:27.531Z,34.60
2018-09-05T12:22:54.980Z,35.60
2018-09-05T12:25:22.408Z,34.90
2018-09-05T12:27:49.820Z,34.90
2018-09-05T12:30:17.246Z,35.70
2018-09-05T12:32:44.648Z,35.70
2018-09-05T12:35:12.074Z,36.50
2018-09-05T12:37:39.526Z,36.30
2018-09-05T12:40:06.938Z,36.20
2018-09-05T12:42:34.341Z,36.30
2018-09-05T12:45:01.733Z,35.90
2018-09-05T12:47:29.180Z,35.50
2018-09-05T12:49:56.654Z,34.30
2018-09-05T12:52:24.070Z,33.30
2018-09-05T12:54:51.530Z,33.20
2018-09-05T12:57:19.082Z,33.70
2018-09-05T12:59:46.544Z,33.80
2018-09-05T13:02:13.952Z,33.50
2018-09-05T13:04:41.409Z,32.90
2018-09-05T13:07:08.878Z,33.50
2018-09-05T13:09:36.306Z,32.80
2018-09-05T13:12:03.766Z,32.10
2018-09-05T13:14:31.236Z,31.60
2018-09-05T13:16:58.648Z,30.60
2018-09-05T13:19:26.091Z,30.00
2018-09-05T13:21:53.525Z,29.80
2018-09-05T13:24:21.010Z,29.90
2018-09-05T13:26:48.410Z,29.20
2018-09-05T13:29:15.790Z,29.10
2018-09-05T13:31:43.262Z,28.70
2018-09-05T13:34:10.675Z,28.30
2018-09-05T13:36:38.167Z,27.60
2018-09-05T13:39:06.785Z,27.10
2018-09-05T13:41:34.254Z,27.00
2018-09-05T13:44:01.720Z,26.70
2018-09-05T13:46:29.169Z,26.40
2018-09-05T13:48:56.591Z,26.60
2018-09-05T13:51:23.988Z,26.60
2018-09-05T13:53:51.498Z,26.60
2018-09-05T13:56:18.981Z,26.30
2018-09-05T13:58:46.402Z,25.90
2018-09-05T14:01:13.842Z,25.70
2018-09-05T14:03:41.250Z,25.80
2018-09-05T14:06:08.684Z,25.70
2018-09-05T14:08:36.067Z,25.60
2018-09-05T14:11:03.562Z,25.40
2018-09-05T14:13:31.007Z,24.90
2018-09-05T14:15:58.508Z,24.90
2018-09-05T14:18:26.003Z,24.80
2018-09-05T14:20:53.454Z,24.90
2018-09-05T14:23:20.899Z,24.70
2018-09-05T14:25:48.358Z,24.60
2018-09-05T14:28:15.901Z,24.30
2018-09-05T14:30:43.328Z,24.30
2018-09-05T14:33:10.783Z,24.50
2018-09-05T14:35:38.242Z,24.70
2018-09-05T14:38:05.656Z,24.70
2018-09-05T14:40:33.143Z,24.90
2018-09-05T14:43:00.825Z,24.80
2018-09-05T14:45:28.281Z,24.70
2018-09-05T14:47:55.687Z,24.60
2018-09-05T14:50:23.185Z,24.50
2018-09-05T14:52:50.628Z,24.30
2018-09-05T14:55:18.093Z,24.50
2018-09-05T14:57:45.531Z,24.60
2018-09-05T15:00:12.961Z,24.70
2018-09-05T15:02:40.385Z,24.40
2018-09-05T15:05:07.819Z,24.50
2018-09-05T15:07:35.347Z,24.70
2018-09-05T15:10:02.801Z,24.60
2018-09-05T15:12:30.223Z,24.50
2018-09-05T15:14:57.691Z,24.60
2018-09-05T15:17:25.127Z,24.70
2018-09-05T15:19:52.604Z,24.70
2018-09-05T15:22:20.018Z,24.90
2018-09-05T15:24:47.453Z,24.90
2018-09-05T15:27:14.863Z,25.10
2018-09-05T15:29:42.338Z,25.50
2018-09-05T15:32:09.762Z,25.50
2018-09-05T15:34:37.205Z,25.80
2018-09-05T15:37:04.734Z,25.90
2018-09-05T15:39:32.198Z,26.00
2018-09-05T15:41:59.590Z,26.20
2018-09-05T15:44:27.023Z,26.50
2018-09-05T15:46:54.472Z,26.80
2018-09-05T15:49:21.886Z,26.50
2018-09-05T15:51:53.576Z,26.70
2018-09-05T15:54:21.076Z,26.70
2018-09-05T15:56:48.795Z,26.80
2018-09-05T15:59:16.272Z,26.90
2018-09-05T16:01:43.729Z,26.90
2018-09-05T16:04:11.202Z,27.10
2018-09-05T16:06:38.635Z,27.40
2018-09-05T16:09:07.102Z,27.80
2018-09-05T16:11:34.795Z,28.20
2018-09-05T16:14:02.419Z,28.50
2018-09-05T16:16:29.866Z,29.00
2018-09-05T16:18:57.334Z,29.70
2018-09-05T16:21:24.755Z,30.80
2018-09-05T16:23:52.178Z,30.50
2018-09-05T16:26:19.622Z,31.00
2018-09-05T16:28:47.078Z,31.40
2018-09-05T16:31:14.619Z,31.80
2018-09-05T16:33:42.065Z,32.40
2018-09-05T16:36:09.926Z,32.90
2018-09-05T16:38:37.346Z,33.10
2018-09-05T16:41:04.789Z,33.70
2018-09-05T16:43:32.270Z,34.10
2018-09-05T16:45:59.802Z,34.40
2018-09-05T16:48:27.348Z,35.00
2018-09-05T16:50:54.836Z,35.40
2018-09-05T16:53:22.342Z,35.70
2018-09-05T16:55:49.781Z,36.20
2018-09-05T16:58:17.190Z,36.60
2018-09-05T17:00:45.530Z,37.00
2018-09-05T17:03:13.094Z,37.30
2018-09-05T17:05:40.514Z,37.80
2018-09-05T17:08:08.025Z,38.20
2018-09-05T17:10:35.476Z,38.60
2018-09-05T17:13:02.919Z,38.80
2018-09-05T17:15:30.707Z,39.10
2018-09-05T17:17:58.196Z,39.40
2018-09-05T17:20:25.655Z,39.70
2018-09-05T17:22:53.888Z,40.00
2018-09-05T17:25:21.355Z,40.20
2018-09-05T17:27:48.814Z,40.50
2018-09-05T17:30:16.301Z,40.80
2018-09-05T17:32:43.783Z,41.00
2018-09-05T17:35:11.340Z,41.20
2018-09-05T17:37:38.943Z,41.50
2018-09-05T17:40:06.561Z,41.70
2018-09-05T17:42:34.061Z,41.80
2018-09-05T17:45:01.628Z,42.00
2018-09-05T17:47:29.210Z,42.30
2018-09-05T17:49:56.744Z,42.40
2018-09-05T17:52:24.187Z,42.60
2018-09-05T17:54:51.761Z,42.80
2018-09-05T17:57:19.238Z,43.10
2018-09-05T17:59:46.773Z,43.20
2018-09-05T18:02:14.330Z,43.40
2018-09-05T18:04:41.810Z,43.50
2018-09-05T18:07:09.263Z,43.70
2018-09-05T18:09:36.771Z,43.80
2018-09-05T18:12:04.281Z,44.10
2018-09-05T18:14:31.934Z,44.10
2018-09-05T18:16:59.633Z,44.30
2018-09-05T18:19:28.465Z,44.70
2018-09-05T18:21:55.909Z,44.80
2018-09-05T18:24:26.455Z,44.90
2018-09-05T18:26:53.916Z,45.10
2018-09-05T18:29:22.009Z,45.20
2018-09-05T18:31:49.451Z,45.40
2018-09-05T18:34:17.585Z,45.60
2018-09-05T18:36:45.100Z,46.00
2018-09-05T18:39:12.926Z,46.00
2018-09-05T18:41:41.410Z,46.20
2018-09-05T18:44:08.905Z,46.20
2018-09-05T18:46:36.356Z,47.10
2018-09-05T18:49:04.202Z,46.60
2018-09-05T18:51:32.032Z,46.70
2018-09-05T18:53:59.573Z,46.80
2018-09-05T18:56:27.227Z,47.10
2018-09-05T18:58:54.750Z,47.10
2018-09-05T19:01:23.177Z,47.30
2018-09-05T19:03:52.135Z,47.50
2018-09-05T19:06:19.743Z,47.60
2018-09-05T19:08:56.574Z,47.80
2018-09-05T19:11:24.147Z,47.80
2018-09-05T19:13:51.628Z,47.90
2018-09-05T19:16:19.158Z,48.00
2018-09-05T19:18:46.683Z,48.30
2018-09-05T19:21:14.233Z,48.40
2018-09-05T19:23:41.734Z,48.40
2018-09-05T19:26:09.242Z,48.60
2018-09-05T19:28:36.790Z,48.80
2018-09-05T19:31:04.265Z,48.90
2018-09-05T19:33:31.774Z,49.00
2018-09-05T19:35:59.213Z,48.90
2018-09-05T19:38:26.667Z,49.30
2018-09-05T19:40:54.175Z,49.50
2018-09-05T19:43:21.661Z,49.60
2018-09-05T19:45:49.234Z,49.60
2018-09-05T19:48:16.690Z,49.80
2018-09-05T19:50:44.208Z,49.80
2018-09-05T19:53:11.777Z,50.00
2018-09-05T19:55:39.346Z,50.10
2018-09-05T19:58:06.924Z,50.90
2018-09-05T20:00:34.456Z,50.30
2018-09-05T20:03:01.991Z,50.40
2018-09-05T20:05:29.494Z,50.50
2018-09-05T20:07:57.009Z,50.70
2018-09-05T20:10:24.986Z,50.70
2018-09-05T20:12:52.496Z,50.90
2018-09-05T20:15:20.048Z,51.00
2018-09-05T20:17:47.565Z,51.10
2018-09-05T20:20:15.048Z,51.10
2018-09-05T20:22:42.525Z,51.20
2018-09-05T20:25:09.995Z,51.30
2018-09-05T20:27:38.582Z,51.50
2018-09-05T20:30:06.847Z,51.60
2018-09-05T20:32:34.293Z,51.70
2018-09-05T20:35:01.818Z,51.60
2018-09-05T20:37:29.269Z,51.80
2018-09-05T20:39:56.697Z,51.90
2018-09-05T20:42:25.027Z,52.00
2018-09-05T20:44:52.753Z,52.10
2018-09-05T20:47:20.235Z,52.10
2018-09-05T20:49:47.795Z,52.10
2018-09-05T20:52:15.317Z,52.20
2018-09-05T20:54:42.753Z,52.30
2018-09-05T20:57:10.244Z,52.40
2018-09-05T20:59:37.761Z,52.50
2018-09-05T21:02:05.350Z,52.50
2018-09-05T21:04:32.879Z,52.60
2018-09-05T21:07:00.460Z,52.80
2018-09-05T21:09:27.913Z,52.80
2018-09-05T21:11:55.428Z,52.90
2018-09-05T21:14:22.889Z,52.90
2018-09-05T21:16:50.294Z,53.10
2018-09-05T21:19:17.823Z,53.10
2018-09-05T21:21:45.293Z,53.10
2018-09-05T21:24:12.734Z,53.20
2018-09-05T21:26:40.167Z,53.20
2018-09-05T21:29:07.582Z,53.30
2018-09-05T21:31:35.057Z,53.40
2018-09-05T21:34:02.614Z,53.40
2018-09-05T21:36:30.071Z,54.10
2018-09-05T21:38:57.527Z,53.50
2018-09-05T21:41:24.955Z,53.60
2018-09-05T21:43:52.374Z,53.70
2018-09-05T21:46:19.829Z,53.60
2018-09-05T21:48:47.270Z,53.80
2018-09-05T21:51:14.759Z,53.80
2018-09-05T21:53:42.218Z,53.90
2018-09-05T21:56:09.721Z,54.00
2018-09-05T21:58:37.147Z,54.00
2018-09-05T22:01:04.721Z,54.00
2018-09-05T22:03:32.611Z,54.10
2018-09-05T22:06:00.463Z,54.80
2018-09-05T22:08:28.155Z,54.20
2018-09-05T22:10:57.498Z,54.30
2018-09-05T22:13:25.242Z,54.40
2018-09-05T22:15:53.131Z,54.40
2018-09-05T22:18:20.707Z,54.40
2018-09-05T22:20:48.251Z,54.50
2018-09-05T22:23:15.909Z,54.50
2018-09-05T22:25:43.421Z,54.50
2018-09-05T22:28:11.061Z,54.50
2018-09-05T22:30:38.593Z,54.60
2018-09-05T22:33:06.279Z,54.60
2018-09-05T22:35:33.978Z,54.70
2018-09-05T22:38:01.544Z,54.70
2018-09-05T22:40:30.250Z,54.70
2018-09-05T22:43:09.905Z,54.70
2018-09-05T22:45:48.750Z,54.80
2018-09-05T22:49:35.754Z,54.80
2018-09-05T22:54:25.651Z,54.60
2018-09-05T22:57:12.194Z,54.70
2018-09-05T22:59:51.044Z,54.80
2018-09-05T23:02:41.385Z,55.20
2018-09-05T23:05:20.159Z,55.40
2018-09-05T23:09:01.869Z,55.40
2018-09-05T23:11:40.709Z,55.60
2018-09-05T23:15:19.105Z,55.40
2018-09-05T23:22:12.183Z,55.70
2018-09-05T23:24:39.621Z,55.60
2018-09-05T23:27:07.813Z,55.50
2018-09-05T23:29:35.223Z,56.00
2018-09-05T23:32:02.640Z,56.30
2018-09-05T23:34:30.007Z,56.40
2018-09-05T23:36:57.431Z,56.40
2018-09-05T23:39:24.856Z,56.40
2018-09-05T23:41:52.359Z,56.40
2018-09-05T23:44:19.786Z,56.40
2018-09-05T23:46:47.268Z,56.30
2018-09-05T23:49:14.727Z,56.30
2018-09-05T23:51:42.152Z,56.20
2018-09-05T23:54:09.598Z,56.20
2018-09-05T23:56:37.104Z,56.30
2018-09-05T23:59:04.564Z,56.20
